Cairo — WDC6535 — position and weather

sailwx.info

Track history (hours):
 
Tides and Currents Weather Stations Pressure Air Temp Water Temp Dewpoint Dewpoint Depression Visibility Wind Speed Wind Dir Waves Ship Positions

Cairo

Owner: American Commercial Lines LLC, Jeffersonville, IN. More information available from US FCC via Universal Licensing System and Coast Guard Vessel Documentation Center.

Last reported at 2018-Feb-17 19:01 UTC. Time now 2018-Feb-17 19:02 UTC.
Position N 32°23' W 090°60'.

; draft 2.9 m.

Type: Towing. MMSI: 367057620.

Date/timePositionNaut miles runAvg speedWind from/ knotsBaromVisibWave heightAir tempDewpointWater temp
2018-Feb-17 19:01N 32°23' W 090°60'2 3.5
2018-Feb-17 18:30N 32°22' W 091°00'2 3.4
2018-Feb-17 18:00N 32°21' W 090°58'0 0.7
2018-Feb-17 17:31N 32°21' W 090°58'0 0.1
2018-Feb-17 17:00N 32°21' W 090°58'0 0.6
2018-Feb-17 16:31N 32°21' W 090°58'1 2.5
2018-Feb-17 16:01N 32°21' W 090°56'2 3.6
2018-Feb-17 15:31N 32°20' W 090°54'2 3.4
2018-Feb-17 15:01N 32°18' W 090°55'2 3.9
2018-Feb-17 14:31N 32°17' W 090°56'1 1.7
2018-Feb-17 14:01N 32°17' W 090°57'2 3.7
2018-Feb-17 13:31N 32°15' W 090°58'2 4.4
2018-Feb-17 13:00N 32°13' W 090°59'2 3.5
2018-Feb-17 12:31N 32°11' W 090°60'2 3.6
2018-Feb-17 12:00N 32°10' W 091°00'2 3.6
2018-Feb-17 11:31N 32°08' W 091°01'2 3.2
2018-Feb-17 10:59N 32°07' W 091°03'2 3.5
2018-Feb-17 10:18N 32°08' W 091°05'1 3.5
2018-Feb-17 10:00N 32°08' W 091°06'6 3.8
2018-Feb-17 08:18N 32°02' W 091°04'1 4.3
2018-Feb-17 08:00N 32°01' W 091°05'  
2018-Feb-10 00:57N 31°59' W 091°07'3 7.3
2018-Feb-10 00:29N 32°01' W 091°04'5 7.5
2018-Feb-09 23:51N 32°06' W 091°06'2 4.8
2018-Feb-09 23:31N 32°08' W 091°06'3 6.0
2018-Feb-09 23:00N 32°07' W 091°03'2 7.2
2018-Feb-09 22:46N 32°08' W 091°01'6 7.9
2018-Feb-09 22:01N 32°13' W 090°59'4 7.8
2018-Feb-09 21:31N 32°17' W 090°57'4 7.9
2018-Feb-09 21:01N 32°20' W 090°54'3 5.5
2018-Feb-09 20:31N 32°21' W 090°57'0 0.1
2018-Feb-09 19:31N 32°21' W 090°57'0 0.0
2018-Feb-09 19:01N 32°21' W 090°57'0 0.1
2018-Feb-09 18:31N 32°21' W 090°57'8 5.3
2018-Feb-09 17:01N 32°26' W 091°04'4 7.1
2018-Feb-09 16:31N 32°29' W 091°07'  
Track history (hours):
 
Tides and Currents Weather Stations Pressure Air Temp Water Temp Dewpoint Dewpoint Depression Visibility Wind Speed Wind Dir Waves Ship Positions

Cairo

Owner: American Commercial Lines LLC, Jeffersonville, IN. More information available from US FCC via Universal Licensing System and Coast Guard Vessel Documentation Center.

Last reported at 2018-Feb-17 19:01 UTC. Time now 2018-Feb-17 19:02 UTC.
Position N 32°23' W 090°60'.

; draft 2.9 m.

Type: Towing. MMSI: 367057620.

Date/timePositionNaut miles runAvg speedWind from/ knotsBaromVisibWave heightAir tempDewpointWater temp
2018-Feb-17 19:01N 32°23' W 090°60'2 3.5
2018-Feb-17 18:30N 32°22' W 091°00'2 3.4
2018-Feb-17 18:00N 32°21' W 090°58'0 0.7
2018-Feb-17 17:31N 32°21' W 090°58'0 0.1
2018-Feb-17 17:00N 32°21' W 090°58'0 0.6
2018-Feb-17 16:31N 32°21' W 090°58'1 2.5
2018-Feb-17 16:01N 32°21' W 090°56'2 3.6
2018-Feb-17 15:31N 32°20' W 090°54'2 3.4
2018-Feb-17 15:01N 32°18' W 090°55'2 3.9
2018-Feb-17 14:31N 32°17' W 090°56'1 1.7
2018-Feb-17 14:01N 32°17' W 090°57'2 3.7
2018-Feb-17 13:31N 32°15' W 090°58'2 4.4
2018-Feb-17 13:00N 32°13' W 090°59'2 3.5
2018-Feb-17 12:31N 32°11' W 090°60'2 3.6
2018-Feb-17 12:00N 32°10' W 091°00'2 3.6
2018-Feb-17 11:31N 32°08' W 091°01'2 3.2
2018-Feb-17 10:59N 32°07' W 091°03'2 3.5
2018-Feb-17 10:18N 32°08' W 091°05'1 3.5
2018-Feb-17 10:00N 32°08' W 091°06'6 3.8
2018-Feb-17 08:18N 32°02' W 091°04'1 4.3
2018-Feb-17 08:00N 32°01' W 091°05'  
2018-Feb-10 00:57N 31°59' W 091°07'3 7.3
2018-Feb-10 00:29N 32°01' W 091°04'5 7.5
2018-Feb-09 23:51N 32°06' W 091°06'2 4.8
2018-Feb-09 23:31N 32°08' W 091°06'3 6.0
2018-Feb-09 23:00N 32°07' W 091°03'2 7.2
2018-Feb-09 22:46N 32°08' W 091°01'6 7.9
2018-Feb-09 22:01N 32°13' W 090°59'4 7.8
2018-Feb-09 21:31N 32°17' W 090°57'4 7.9
2018-Feb-09 21:01N 32°20' W 090°54'3 5.5
2018-Feb-09 20:31N 32°21' W 090°57'0 0.1
2018-Feb-09 19:31N 32°21' W 090°57'0 0.0
2018-Feb-09 19:01N 32°21' W 090°57'0 0.1
2018-Feb-09 18:31N 32°21' W 090°57'8 5.3
2018-Feb-09 17:01N 32°26' W 091°04'4 7.1
2018-Feb-09 16:31N 32°29' W 091°07'  

Dump ship's entire track history